createdAt,value
2018-04-24T00:00:33.246Z,18.10
2018-04-24T00:03:03.818Z,17.80
2018-04-24T00:05:34.181Z,15.90
2018-04-24T00:08:04.353Z,16.53
2018-04-24T00:10:34.438Z,17.77
2018-04-24T00:13:04.215Z,24.27
2018-04-24T00:15:34.120Z,25.90
2018-04-24T00:18:05.137Z,19.73
2018-04-24T00:20:35.412Z,17.67
2018-04-24T00:23:05.501Z,20.60
2018-04-24T00:25:35.619Z,20.83
2018-04-24T00:28:06.496Z,15.97
2018-04-24T00:30:37.054Z,22.87
2018-04-24T00:33:07.152Z,25.23
2018-04-24T00:35:37.851Z,20.97
2018-04-24T00:38:08.090Z,23.13
2018-04-24T00:40:38.940Z,22.40
2018-04-24T00:43:10.385Z,25.17
2018-04-24T00:45:40.661Z,24.13
2018-04-24T00:48:11.563Z,20.27
2018-04-24T00:50:42.598Z,23.13
2018-04-24T00:53:29.500Z,23.13
2018-04-24T00:55:59.579Z,24.77
2018-04-24T00:58:29.451Z,26.07
2018-04-24T01:00:59.206Z,26.57
2018-04-24T01:03:29.307Z,25.97
2018-04-24T01:05:59.425Z,23.73
2018-04-24T01:08:29.541Z,28.67
2018-04-24T01:10:59.901Z,21.90
2018-04-24T01:13:30.401Z,21.73
2018-04-24T01:16:01.135Z,30.47
2018-04-24T01:18:31.259Z,21.33
2018-04-24T01:21:01.104Z,21.07
2018-04-24T01:23:31.192Z,22.90
2018-04-24T01:26:01.455Z,30.73
2018-04-24T01:28:31.257Z,22.63
2018-04-24T01:31:01.332Z,30.73
2018-04-24T01:33:31.528Z,25.00
2018-04-24T01:36:01.597Z,23.53
2018-04-24T01:38:31.684Z,41.57
2018-04-24T01:41:02.377Z,46.63
2018-04-24T01:43:32.511Z,54.57
2018-04-24T01:46:03.372Z,61.03
2018-04-24T01:48:33.507Z,60.67
2018-04-24T01:51:04.361Z,54.77
2018-04-24T01:53:34.453Z,53.50
2018-04-24T01:56:04.446Z,43.97
2018-04-24T01:58:35.574Z,42.17
2018-04-24T02:01:05.296Z,38.80
2018-04-24T02:03:35.466Z,42.50
2018-04-24T02:06:05.612Z,25.67
2018-04-24T02:08:35.723Z,34.80
2018-04-24T02:11:05.868Z,42.53
2018-04-24T02:13:37.038Z,44.37
2018-04-24T02:16:07.116Z,47.50
2018-04-24T02:18:38.076Z,39.70
2018-04-24T02:21:07.832Z,40.77
2018-04-24T02:23:38.127Z,31.80
2018-04-24T02:26:08.723Z,45.87
2018-04-24T02:28:38.829Z,55.83
2018-04-24T02:31:08.896Z,32.20
2018-04-24T02:33:39.949Z,40.60
2018-04-24T02:36:10.496Z,38.93
2018-04-24T02:38:40.930Z,42.60
2018-04-24T02:41:12.121Z,43.73
2018-04-24T02:43:42.998Z,30.53
2018-04-24T02:46:13.279Z,59.73
2018-04-24T02:48:44.340Z,42.87
2018-04-24T02:51:14.723Z,45.10
2018-04-24T02:53:44.819Z,39.70
2018-04-24T02:56:14.625Z,58.57
2018-04-24T02:58:44.485Z,76.97
2018-04-24T03:01:15.333Z,84.13
2018-04-24T03:03:46.431Z,77.43
2018-04-24T03:06:16.524Z,96.23
2018-04-24T03:08:46.824Z,84.10
2018-04-24T03:11:16.813Z,100.67
2018-04-24T03:13:47.175Z,102.93
2018-04-24T03:16:17.146Z,93.33
2018-04-24T03:18:47.266Z,88.50
2018-04-24T03:21:18.156Z,101.57
2018-04-24T03:23:49.004Z,113.70
2018-04-24T03:26:19.904Z,101.23
2018-04-24T03:28:50.034Z,106.03
2018-04-24T03:31:21.886Z,103.13
2018-04-24T03:33:52.008Z,107.67
2018-04-24T03:36:22.117Z,113.10
2018-04-24T03:38:52.548Z,125.90
2018-04-24T03:41:23.447Z,123.60
2018-04-24T03:43:53.545Z,128.93
2018-04-24T03:46:23.624Z,117.97
2018-04-24T03:48:53.728Z,124.67
2018-04-24T03:51:23.815Z,120.27
2018-04-24T03:53:54.681Z,122.63
2018-04-24T03:56:24.977Z,117.63
2018-04-24T03:58:55.286Z,113.20
2018-04-24T04:01:25.790Z,116.13
2018-04-24T04:03:56.087Z,108.00
2018-04-24T04:06:26.638Z,76.47
2018-04-24T04:08:56.780Z,101.57
2018-04-24T04:11:26.663Z,83.17
2018-04-24T04:13:56.946Z,80.23
2018-04-24T04:16:27.032Z,84.90
2018-04-24T04:19:14.700Z,106.20
2018-04-24T04:35:25.088Z,81.30
2018-04-24T04:37:55.536Z,116.23
2018-04-24T04:40:25.955Z,99.60
2018-04-24T04:42:57.740Z,108.33
2018-04-24T04:45:29.271Z,87.97
2018-04-24T04:47:59.366Z,99.53
2018-04-24T04:50:43.799Z,113.53
2018-04-24T04:53:15.079Z,101.77
2018-04-24T04:55:45.518Z,120.97
2018-04-24T04:58:17.339Z,115.37
2018-04-24T05:00:47.675Z,117.83
2018-04-24T05:06:17.948Z,124.07
2018-04-24T05:08:48.503Z,102.53
2018-04-24T05:11:18.603Z,103.63
2018-04-24T05:13:48.672Z,90.67
2018-04-24T05:16:18.773Z,88.80
2018-04-24T05:18:49.615Z,76.93
2018-04-24T05:21:19.706Z,70.60
2018-04-24T05:23:49.807Z,58.57
2018-04-24T05:26:20.083Z,49.10
2018-04-24T05:28:50.351Z,40.47
2018-04-24T05:31:20.677Z,36.20
2018-04-24T05:33:51.058Z,30.63
2018-04-24T05:36:21.654Z,30.73
2018-04-24T05:38:51.728Z,25.30
2018-04-24T05:41:22.029Z,21.07
2018-04-24T05:43:53.113Z,16.97
2018-04-24T05:46:24.064Z,14.33
2018-04-24T05:48:54.118Z,13.73
2018-04-24T05:51:25.184Z,15.57
2018-04-24T05:53:55.283Z,12.00
2018-04-24T05:56:25.404Z,14.27
2018-04-24T05:58:55.471Z,11.50
2018-04-24T06:01:25.570Z,17.37
2018-04-24T06:03:55.675Z,18.27
2018-04-24T06:06:25.754Z,9.73
2018-04-24T06:08:56.820Z,13.60
2018-04-24T06:11:26.923Z,10.93
2018-04-24T06:13:57.208Z,13.60
2018-04-24T06:16:28.077Z,15.00
2018-04-24T06:18:59.115Z,13.97
2018-04-24T06:21:29.215Z,12.87
2018-04-24T06:23:59.303Z,7.77
2018-04-24T06:26:29.408Z,12.90
2018-04-24T06:28:59.501Z,9.20
2018-04-24T06:31:30.133Z,11.50
2018-04-24T06:34:00.230Z,7.93
2018-04-24T06:36:30.304Z,7.83
2018-04-24T06:39:01.420Z,8.80
2018-04-24T06:41:31.514Z,8.60
2018-04-24T06:44:01.927Z,7.53
2018-04-24T06:46:32.012Z,6.27
2018-04-24T06:49:02.102Z,10.07
2018-04-24T06:51:32.747Z,8.20
2018-04-24T06:54:02.847Z,7.78
2018-04-24T06:56:33.693Z,7.33
2018-04-24T06:59:04.635Z,13.10
2018-04-24T07:01:34.707Z,5.23
2018-04-24T07:04:05.234Z,12.23
2018-04-24T07:06:35.555Z,7.40
2018-04-24T07:09:04.833Z,11.07
2018-04-24T07:11:34.934Z,6.73
2018-04-24T07:14:05.211Z,9.83
2018-04-24T07:16:35.568Z,6.97
2018-04-24T07:19:05.840Z,8.20
2018-04-24T07:21:36.119Z,6.70
2018-04-24T07:24:06.402Z,8.60
2018-04-24T07:26:36.731Z,8.27
2018-04-24T07:29:06.824Z,6.23
2018-04-24T07:31:37.115Z,6.23
2018-04-24T07:34:07.216Z,6.37
2018-04-24T07:36:37.497Z,15.70
2018-04-24T07:39:08.607Z,5.67
2018-04-24T07:41:39.273Z,8.00
2018-04-24T07:44:09.534Z,9.50
2018-04-24T07:46:39.865Z,7.43
2018-04-24T07:49:10.418Z,8.17
2018-04-24T07:51:41.728Z,6.20
2018-04-24T07:54:11.808Z,7.70
2018-04-24T07:56:42.167Z,8.17
2018-04-24T07:59:12.437Z,6.30
2018-04-24T08:01:42.714Z,8.77
2018-04-24T08:04:13.632Z,5.77
2018-04-24T08:06:44.202Z,10.63
2018-04-24T08:09:14.308Z,8.90
2018-04-24T08:11:44.423Z,8.63
2018-04-24T08:14:14.516Z,7.90
2018-04-24T08:16:44.891Z,9.63
2018-04-24T08:19:15.238Z,7.20
2018-04-24T08:21:45.322Z,9.93
2018-04-24T08:24:15.447Z,6.87
2018-04-24T08:26:45.769Z,7.83
2018-04-24T08:29:15.855Z,8.67
2018-04-24T08:31:45.619Z,8.73
2018-04-24T08:34:15.744Z,9.83
2018-04-24T08:36:46.053Z,5.77
2018-04-24T08:39:16.157Z,4.10
2018-04-24T08:41:46.770Z,6.93
2018-04-24T08:44:17.646Z,6.93
2018-04-24T08:46:49.095Z,6.93
2018-04-24T08:49:19.740Z,7.57
2018-04-24T08:51:50.405Z,7.40
2018-04-24T08:54:21.258Z,8.55
2018-04-24T08:56:52.083Z,7.60
2018-04-24T08:59:22.459Z,7.37
2018-04-24T09:01:52.738Z,9.33
2018-04-24T09:04:24.583Z,6.03
2018-04-24T09:06:54.871Z,6.23
2018-04-24T09:09:25.212Z,6.70
2018-04-24T09:11:55.275Z,5.50
2018-04-24T09:14:25.368Z,7.93
2018-04-24T09:16:55.929Z,8.33
2018-04-24T09:19:26.207Z,5.43
2018-04-24T09:21:56.540Z,5.77
2018-04-24T09:24:26.659Z,5.93
2018-04-24T09:26:56.978Z,6.47
2018-04-24T09:29:27.215Z,8.17
2018-04-24T09:31:58.143Z,7.10
2018-04-24T09:34:29.047Z,8.68
2018-04-24T09:36:59.715Z,6.65
2018-04-24T09:39:30.498Z,5.65
2018-04-24T09:42:01.474Z,9.27
2018-04-24T09:44:32.055Z,7.50
2018-04-24T09:47:03.166Z,5.40
2018-04-24T09:49:33.937Z,5.53
2018-04-24T09:52:04.479Z,4.90
2018-04-24T09:54:35.123Z,7.12
2018-04-24T09:57:05.772Z,10.75
2018-04-24T09:59:37.199Z,10.15
2018-04-24T10:02:07.847Z,6.20
2018-04-24T10:04:39.482Z,8.32
2018-04-24T10:07:10.326Z,4.87
2018-04-24T10:09:41.728Z,9.20
2018-04-24T10:12:12.386Z,4.15
2018-04-24T10:14:43.065Z,4.78
2018-04-24T10:17:13.891Z,5.87
2018-04-24T10:19:44.630Z,5.70
2018-04-24T10:22:15.395Z,5.75
2018-04-24T10:24:47.006Z,8.70
2018-04-24T10:27:17.735Z,10.23
2018-04-24T10:29:48.539Z,7.70
2018-04-24T10:32:19.383Z,7.37
2018-04-24T10:34:50.531Z,7.35
2018-04-24T10:37:21.954Z,9.82
2018-04-24T10:39:53.834Z,3.95
2018-04-24T10:42:24.482Z,6.87
2018-04-24T10:44:55.156Z,7.53
2018-04-24T10:47:25.823Z,7.65
2018-04-24T10:49:56.659Z,8.07
2018-04-24T10:52:27.308Z,7.30
2018-04-24T10:54:58.907Z,6.78
2018-04-24T10:57:29.560Z,4.55
2018-04-24T11:00:01.251Z,5.80
2018-04-24T11:02:32.124Z,6.60
2018-04-24T11:05:02.784Z,6.50
2018-04-24T11:07:33.434Z,8.00
2018-04-24T11:10:03.613Z,6.75
2018-04-24T11:12:34.474Z,7.53
2018-04-24T11:15:05.132Z,6.03
2018-04-24T11:17:35.771Z,6.00
2018-04-24T11:20:06.432Z,7.07
2018-04-24T11:22:37.105Z,8.65
2018-04-24T11:25:07.954Z,7.40
2018-04-24T11:27:38.599Z,6.62
2018-04-24T11:30:08.936Z,5.20
2018-04-24T11:32:40.761Z,7.15
2018-04-24T11:35:11.616Z,8.48
2018-04-24T11:37:42.287Z,4.60
2018-04-24T11:40:13.148Z,8.10
2018-04-24T11:42:43.800Z,7.30
2018-04-24T11:45:14.558Z,5.57
2018-04-24T11:47:45.113Z,8.18
2018-04-24T11:50:15.755Z,6.78
2018-04-24T11:52:46.074Z,5.43
2018-04-24T11:55:16.712Z,5.57
2018-04-24T11:57:47.579Z,6.37
2018-04-24T12:00:18.232Z,7.12
2018-04-24T12:02:49.867Z,6.28
2018-04-24T12:05:20.688Z,4.87
2018-04-24T12:07:51.534Z,9.93
2018-04-24T12:10:22.191Z,6.20
2018-04-24T12:12:53.038Z,6.00
2018-04-24T12:15:23.906Z,6.28
2018-04-24T12:17:54.772Z,8.57
2018-04-24T12:20:25.411Z,5.43
2018-04-24T12:22:56.079Z,9.15
2018-04-24T12:25:26.768Z,8.77
2018-04-24T12:27:57.444Z,5.22
2018-04-24T12:30:28.329Z,6.03
2018-04-24T12:32:59.299Z,7.05
2018-04-24T12:35:31.514Z,10.07
2018-04-24T12:38:02.197Z,7.20
2018-04-24T12:40:32.839Z,6.07
2018-04-24T12:43:03.681Z,6.22
2018-04-24T12:45:35.280Z,10.07
2018-04-24T12:48:05.586Z,9.68
2018-04-24T12:50:37.009Z,6.12
2018-04-24T12:53:07.702Z,8.75
2018-04-24T12:55:38.524Z,6.57
2018-04-24T12:58:09.196Z,7.20
2018-04-24T13:00:40.091Z,7.68
2018-04-24T13:03:11.531Z,11.52
2018-04-24T13:05:43.220Z,6.62
2018-04-24T13:08:13.914Z,6.25
2018-04-24T13:10:45.578Z,7.10
2018-04-24T13:13:16.251Z,4.80
2018-04-24T13:15:47.113Z,8.70
2018-04-24T13:18:17.794Z,10.57
2018-04-24T13:20:49.237Z,7.25
2018-04-24T13:23:19.911Z,7.45
2018-04-24T13:25:51.413Z,13.15
2018-04-24T13:28:21.987Z,6.90
2018-04-24T13:30:52.642Z,5.47
2018-04-24T13:33:23.342Z,11.35
2018-04-24T13:35:54.000Z,7.25
2018-04-24T13:38:25.006Z,5.70
2018-04-24T13:40:56.618Z,6.45
2018-04-24T13:43:27.339Z,8.57
2018-04-24T13:45:58.026Z,5.75
2018-04-24T13:48:28.690Z,8.13
2018-04-24T13:50:59.358Z,7.47
2018-04-24T13:53:30.010Z,6.07
2018-04-24T13:56:00.661Z,6.60
2018-04-24T13:58:32.558Z,7.15
2018-04-24T14:01:03.213Z,9.15
2018-04-24T14:03:33.842Z,10.70
2018-04-24T14:06:04.380Z,6.85
2018-04-24T14:08:35.272Z,10.20
2018-04-24T14:11:05.640Z,6.62
2018-04-24T14:13:36.351Z,9.00
2018-04-24T14:16:07.305Z,9.50
2018-04-24T14:18:38.247Z,5.82
2018-04-24T14:21:09.233Z,6.25
2018-04-24T14:23:40.155Z,7.50
2018-04-24T14:26:11.301Z,7.18
2018-04-24T14:28:42.207Z,8.70
2018-04-24T14:31:12.219Z,6.95
2018-04-24T14:33:43.707Z,4.90
2018-04-24T14:36:14.370Z,6.75
2018-04-24T14:38:45.309Z,7.00
2018-04-24T14:41:16.169Z,5.25
2018-04-24T14:43:47.197Z,5.57
2018-04-24T14:46:17.860Z,8.00
2018-04-24T14:48:48.736Z,6.03
2018-04-24T14:51:19.565Z,8.30
2018-04-24T14:53:49.996Z,7.28
2018-04-24T14:56:21.499Z,16.60
2018-04-24T14:58:52.416Z,10.40
2018-04-24T15:01:23.060Z,8.60
2018-04-24T15:03:54.051Z,7.68
2018-04-24T15:06:24.678Z,4.50
2018-04-24T15:08:55.671Z,6.45
2018-04-24T15:11:26.551Z,7.50
2018-04-24T15:13:57.208Z,10.13
2018-04-24T15:16:27.870Z,8.40
2018-04-24T15:18:58.523Z,10.18
2018-04-24T15:21:29.143Z,10.82
2018-04-24T15:24:00.007Z,8.93
2018-04-24T15:26:30.893Z,11.00
2018-04-24T15:29:01.578Z,6.20
2018-04-24T15:31:32.192Z,10.13
2018-04-24T15:34:03.082Z,6.15
2018-04-24T15:36:33.931Z,5.30
2018-04-24T15:39:03.630Z,5.60
2018-04-24T15:41:34.322Z,5.22
2018-04-24T15:44:05.600Z,11.18
2018-04-24T15:46:36.109Z,7.75
2018-04-24T15:49:07.180Z,9.98
2018-04-24T15:51:37.839Z,9.13
2018-04-24T15:54:09.251Z,4.95
2018-04-24T15:56:39.956Z,6.12
2018-04-24T15:59:11.469Z,6.10
2018-04-24T16:01:42.263Z,6.87
2018-04-24T16:04:13.933Z,10.13
2018-04-24T16:06:45.830Z,6.65
2018-04-24T16:09:16.487Z,7.53
2018-04-24T16:11:47.135Z,5.78
2018-04-24T16:14:18.307Z,11.68
2018-04-24T16:16:48.976Z,9.73
2018-04-24T16:19:19.710Z,6.65
2018-04-24T16:21:50.498Z,7.53
2018-04-24T16:24:21.339Z,6.20
2018-04-24T16:26:52.466Z,7.37
2018-04-24T16:29:23.144Z,5.03
2018-04-24T16:31:53.830Z,11.80
2018-04-24T16:34:25.281Z,6.05
2018-04-24T16:36:56.328Z,8.80
2018-04-24T16:39:27.128Z,5.85
2018-04-24T16:41:57.843Z,8.30
2018-04-24T16:44:28.814Z,8.90
2018-04-24T16:46:59.453Z,4.25
2018-04-24T16:49:30.330Z,7.35
2018-04-24T16:52:01.479Z,5.50
2018-04-24T16:54:32.339Z,7.53
2018-04-24T16:57:02.974Z,9.35
2018-04-24T16:59:34.593Z,7.80
2018-04-24T17:02:04.666Z,8.32
2018-04-24T17:04:35.333Z,9.68
2018-04-24T17:07:06.990Z,9.07
2018-04-24T17:09:37.897Z,9.40
2018-04-24T17:12:08.249Z,6.57
2018-04-24T17:14:38.339Z,6.17
2018-04-24T17:17:08.910Z,7.30
2018-04-24T17:19:39.982Z,7.93
2018-04-24T17:22:10.826Z,7.73
2018-04-24T17:24:42.054Z,6.40
2018-04-24T17:27:12.120Z,8.43
2018-04-24T17:29:42.529Z,8.33
2018-04-24T17:32:13.407Z,7.87
2018-04-24T17:34:43.495Z,12.43
2018-04-24T17:37:14.437Z,7.03
2018-04-24T17:39:45.252Z,11.20
2018-04-24T17:42:15.329Z,9.13
2018-04-24T17:44:46.405Z,5.93
2018-04-24T17:47:16.707Z,6.77
2018-04-24T17:49:46.890Z,10.07
2018-04-24T17:52:17.500Z,8.10
2018-04-24T17:54:47.270Z,7.20
2018-04-24T17:57:17.298Z,7.47
2018-04-24T17:59:47.797Z,7.10
2018-04-24T18:02:17.973Z,9.00
2018-04-24T18:04:48.078Z,10.47
2018-04-24T18:07:18.930Z,7.20
2018-04-24T18:09:49.649Z,8.07
2018-04-24T18:12:19.746Z,7.13
2018-04-24T18:14:50.090Z,9.40
2018-04-24T18:17:20.167Z,6.73
2018-04-24T18:19:51.149Z,12.40
2018-04-24T18:22:22.790Z,9.93
2018-04-24T18:24:53.997Z,8.43
2018-04-24T18:27:24.248Z,5.70
2018-04-24T18:29:54.375Z,9.97
2018-04-24T18:32:25.064Z,8.73
2018-04-24T18:34:55.191Z,7.63
2018-04-24T18:37:25.432Z,7.83
2018-04-24T18:39:55.766Z,7.07
2018-04-24T18:42:25.872Z,8.03
2018-04-24T18:44:56.320Z,8.37
2018-04-24T18:47:26.755Z,7.70
2018-04-24T18:49:57.128Z,6.43
2018-04-24T18:52:27.520Z,9.73
2018-04-24T18:54:58.416Z,8.77
2018-04-24T18:57:28.573Z,8.87
2018-04-24T18:59:59.484Z,9.77
2018-04-24T19:02:29.882Z,11.50
2018-04-24T19:05:00.819Z,10.07
2018-04-24T19:07:31.049Z,13.03
2018-04-24T19:10:01.114Z,6.97
2018-04-24T19:12:33.458Z,8.60
2018-04-24T19:15:03.569Z,10.30
2018-04-24T19:17:33.972Z,9.20
2018-04-24T19:20:04.030Z,6.90
2018-04-24T19:22:35.217Z,7.50
2018-04-24T19:25:10.518Z,8.57
2018-04-24T19:27:40.699Z,8.67
2018-04-24T19:30:11.243Z,9.10
2018-04-24T19:32:41.363Z,7.90
2018-04-24T19:35:12.439Z,9.53
2018-04-24T19:37:43.383Z,16.53
2018-04-24T19:40:19.320Z,7.57
2018-04-24T19:42:49.658Z,8.43
2018-04-24T19:45:20.781Z,6.87
2018-04-24T19:47:53.571Z,9.33
2018-04-24T19:50:24.558Z,8.27
2018-04-24T19:52:55.316Z,8.63
2018-04-24T19:55:26.146Z,6.87
2018-04-24T19:57:56.258Z,11.27
2018-04-24T20:00:26.592Z,8.07
2018-04-24T20:02:56.953Z,7.83
2018-04-24T20:05:27.445Z,13.03
2018-04-24T20:07:58.640Z,10.10
2018-04-24T20:10:29.277Z,7.47
2018-04-24T20:13:01.570Z,8.47
2018-04-24T20:15:32.727Z,11.03
2018-04-24T20:18:02.888Z,8.87
2018-04-24T20:20:33.268Z,9.63
2018-04-24T20:23:06.026Z,8.50
2018-04-24T20:25:37.201Z,10.03
2018-04-24T20:28:08.003Z,8.00
2018-04-24T20:30:39.645Z,10.23
2018-04-24T20:33:11.729Z,16.63
2018-04-24T20:35:43.024Z,7.83
2018-04-24T20:38:13.621Z,8.87
2018-04-24T20:40:45.055Z,16.73
2018-04-24T20:43:16.517Z,11.87
2018-04-24T20:45:48.763Z,7.53
2018-04-24T20:48:19.734Z,8.93
2018-04-24T20:50:50.141Z,6.33
2018-04-24T20:53:20.492Z,8.27
2018-04-24T20:55:52.162Z,8.50
2018-04-24T20:58:23.444Z,10.37
2018-04-24T21:00:53.893Z,10.03
2018-04-24T21:03:24.228Z,10.80
2018-04-24T21:05:54.375Z,13.20
2018-04-24T21:08:26.934Z,8.57
2018-04-24T21:10:57.114Z,9.97
2018-04-24T21:13:27.502Z,7.73
2018-04-24T21:15:57.619Z,9.13
2018-04-24T21:18:28.368Z,8.77
2018-04-24T21:20:58.865Z,8.97
2018-04-24T21:23:29.141Z,8.43
2018-04-24T21:25:59.270Z,10.83
2018-04-24T21:28:29.564Z,12.50
2018-04-24T21:30:59.773Z,9.37
2018-04-24T21:33:29.900Z,8.83
2018-04-24T21:36:00.281Z,7.77
2018-04-24T21:38:33.134Z,7.87
2018-04-24T21:41:04.842Z,9.60
2018-04-24T21:43:35.139Z,9.33
2018-04-24T21:46:06.248Z,8.27
2018-04-24T21:48:38.354Z,10.60
2018-04-24T21:51:12.095Z,9.10
2018-04-24T21:53:42.298Z,8.47
2018-04-24T21:56:12.689Z,10.60
2018-04-24T21:58:44.987Z,10.47
2018-04-24T22:01:16.346Z,12.10
2018-04-24T22:03:46.826Z,9.40
2018-04-24T22:06:17.138Z,10.57
2018-04-24T22:08:47.520Z,11.07
2018-04-24T22:11:19.708Z,9.33
2018-04-24T22:13:52.436Z,7.30
2018-04-24T22:16:24.719Z,9.57
2018-04-24T22:18:56.200Z,9.40
2018-04-24T22:21:28.195Z,9.70
2018-04-24T22:23:59.123Z,11.13
2018-04-24T22:26:29.609Z,7.27
2018-04-24T22:29:00.184Z,8.20
2018-04-24T22:31:30.736Z,9.63
2018-04-24T22:34:03.482Z,8.97
2018-04-24T22:36:33.656Z,11.90
2018-04-24T22:39:05.199Z,12.37
2018-04-24T22:41:35.589Z,11.03
2018-04-24T22:44:07.161Z,8.10
2018-04-24T22:46:37.374Z,10.10
2018-04-24T22:49:07.865Z,8.90
2018-04-24T22:51:38.890Z,7.93
2018-04-24T22:54:10.063Z,8.50
2018-04-24T22:56:41.195Z,13.17
2018-04-24T22:59:12.658Z,7.60
2018-04-24T23:01:43.391Z,9.13
2018-04-24T23:04:14.409Z,9.20
2018-04-24T23:06:44.579Z,8.53
2018-04-24T23:09:15.370Z,11.77
2018-04-24T23:12:03.408Z,14.47
2018-04-24T23:14:50.723Z,8.83
2018-04-24T23:17:37.407Z,11.77
2018-04-24T23:20:16.958Z,11.80
2018-04-24T23:22:47.656Z,11.07
2018-04-24T23:25:17.108Z,9.77
2018-04-24T23:27:46.869Z,11.80
2018-04-24T23:30:17.801Z,10.30
2018-04-24T23:32:48.728Z,9.67
2018-04-24T23:35:17.851Z,9.27
2018-04-24T23:37:49.525Z,11.57
2018-04-24T23:40:20.255Z,9.43
2018-04-24T23:42:52.835Z,9.60
2018-04-24T23:45:22.926Z,12.70
2018-04-24T23:47:53.316Z,12.57
2018-04-24T23:50:30.040Z,10.07
2018-04-24T23:53:00.760Z,10.93
2018-04-24T23:55:30.886Z,9.93
2018-04-24T23:58:02.883Z,10.83
